メインページ
METAR-TAF:

METAR-TAF

空港 :

Slave Lake, アルバータ州, カナダ

緯度: 55-18N, 経度: 114-47W, 海抜: 581m

現時点の気象観測

当レポートは53分前の02:00(UTC)に作成
の風 6kt、から東/南東の間で変化する
気温 -14°C
湿度 92%
気圧 1007 hPa
視程: 14.5km
高度13000ftの千切れ雲あり
高度16000ftの曇り

METAR: CYZH 070200Z AUTO 36006KT 350V110 9SM BKN130 OVC160 M14/M15 A2975 RMK SLP125

時間: 19:53 (02:53 UTC)

予報

当レポートは2時間15分前の00:38(UTC)に作成
予報は07日の 01時(UTC)から 07日の 13時(UTC)まで有効
変向風 3kt
視程: 10km
高度16000ftの千切れ雲あり
07日の 0600時(UTC)から
西/北西の風 6kt
視程: 10km
高度10000ftの千切れ雲あり

TAF: CYZH 070038Z 0701/0713 VRB03KT P6SM BKN160 FM070600 29006KT P6SM BKN100 RMK FCST BASED ON AUTO OBS. NXT FCST BY 070700Z

4,000以上の空港の気象観測と天気予報(METAR報とTAF報)

利用可能な観測所は地図上に黄色い丸と赤い丸で示す。

丸の上にカーソルを重ねると観測所名を参照できる。

次にクリックすると気象観測と天気予報を参照できる。

マップの切り替え:黒色「×」印の緑ボタンをクリックして拡大、「-」印の緑ボタンをクリックして縮小、緑色の三角印をクリックして隣りの地図に切り替え


METAR-TAF: